Ketton, United Kingdom
Current Conditions -  °F | °C
As of 11:50 AM on Tuesday 21 Oct 2014 (Local Time) from EGXT Reporting Station
Scattered Clouds Scattered Clouds  
Wind Chill: 52°   Ceiling: Unl
Heat Index: 52°   Visibility: 6mi
Dew Point: 43°   Wind: 26mph
Humidity: 71%   Direction: 290°WNW
Pressure: 29.59"   Gusts: 38mph
Location:  52.63°N, 0.55°W
Report Text: EGXT 211050Z AUTO 29023G33KT 9999 // SCT032/// 11/06 Q1002
Loading
Personal Weather Stations






























Interactive Weather Map
Tropical Storm Tracking
New forecast layout! Learn more

10-Day Weather Forecast

Advertisements
Track Severe Weather on mobile